Here is the Quick Look data you requested

The Data originates at the National Weather Service, and is made available here by the UAlbany Department of Atmospheric and Environmental Sciences

Surface Observations

KVJI 151855Z AUTO 26006KT 10SM SCT050 32/16 A3009 RMK AO2 T03230155=
KVJI 151915Z AUTO 31008KT 280V350 10SM CLR 33/16 A3007 RMK AO2 T03250163=
KVJI 151935Z AUTO 29009KT 270V330 10SM CLR 33/16 A3007 RMK AO2 T03300155=
KVJI 151955Z AUTO 28007KT 10SM CLR 33/15 A3006 RMK AO2 T03310150=
KVJI 152015Z AUTO 27008KT 10SM CLR 33/16 A3005 RMK AO2 T03280156=
KVJI 152035Z AUTO 29006KT 10SM CLR 33/15 A3005 RMK AO2 T03270154=
KVJI 152055Z AUTO 29004KT 10SM SCT065 SCT075 33/15 A3004 RMK AO2 T03250153=
KVJI 152115Z AUTO 29008KT 10SM SCT065 33/15 A3003 RMK AO2 T03260146=
KVJI 152135Z AUTO 29009KT 10SM CLR 33/15 A3002 RMK AO2 T03290148=
KVJI 152155Z AUTO 27009KT 10SM SCT060 33/15 A3002 RMK AO2 T03270153=
KVJI 152215Z AUTO 30006KT 10SM SCT060 32/15 A3001 RMK AO2 T03220151=
KVJI 152235Z AUTO 30007KT 10SM SCT060 32/16 A3002 RMK AO2 T03200159=
KVJI 152255Z AUTO 32007KT 10SM SCT060 32/16 A3002 RMK AO2 T03190156=
KVJI 152315Z AUTO 34005KT 10SM CLR 31/17 A3002 RMK AO2 T03090165=
KVJI 152335Z AUTO 32004KT 10SM CLR 31/17 A3003 RMK AO2 T03050167=
KVJI 152355Z AUTO 32006KT 10SM CLR 30/17 A3003 RMK AO2 T03010171 10333 20301=
KVJI 160015Z AUTO 33004KT 10SM CLR 30/17 A3004 RMK AO2 T02960174=
KVJI 160035Z AUTO 00000KT 10SM CLR 29/18 A3004 RMK AO2 T02880179=
KVJI 160055Z AUTO 00000KT 10SM CLR 28/19 A3005 RMK AO2 T02770186=
KVJI 160115Z AUTO 00000KT 10SM CLR 27/19 A3005 RMK AO2 T02700189=
KVJI 160135Z AUTO 00000KT 10SM CLR 26/19 A3005 RMK AO2 T02620189=
KVJI 160155Z AUTO 00000KT 10SM CLR 25/19 A3005 RMK AO2 T02520190=
KVJI 160215Z AUTO 00000KT 10SM CLR 25/19 A3005 RMK AO2 T02480190=
KVJI 160235Z AUTO 00000KT 10SM CLR 24/19 A3004 RMK AO2 T02440190=
KVJI 160255Z AUTO 00000KT 10SM CLR 24/19 A3003 RMK AO2 T02420190=
KVJI 160315Z AUTO 00000KT 10SM CLR 24/19 A3003 RMK AO2 T02370191=
KVJI 160335Z AUTO 00000KT 10SM CLR 24/19 A3003 RMK AO2 T02350190=
KVJI 160355Z AUTO 00000KT 10SM CLR 23/19 A3002 RMK AO2 T02300191=
KVJI 160415Z AUTO 00000KT 10SM CLR 23/19 A3002 RMK AO2 T02270190=
KVJI 160435Z AUTO 00000KT 10SM CLR 23/19 A3002 RMK AO2 T02310189=
KVJI 160455Z AUTO 00000KT 10SM CLR 23/19 A3003 RMK AO2 T02270187=
KVJI 160515Z AUTO 00000KT 10SM CLR 23/19 A3003 RMK AO2 T02260187=
KVJI 160535Z AUTO 00000KT 10SM CLR 22/19 A3004 RMK AO2 T02240186=
KVJI 160555Z AUTO 00000KT 10SM CLR 22/19 A3004 RMK AO2 T02180187 10300 20217
 403330172=
KVJI 160615Z AUTO 00000KT 10SM CLR 22/19 A3005 RMK AO2 T02220187=
KVJI 160635Z AUTO 00000KT 10SM CLR 22/19 A3006 RMK AO2 T02190187=
KVJI 160655Z AUTO 00000KT 10SM CLR 22/19 A3005 RMK AO2 T02160185=
KVJI 160715Z AUTO 00000KT 10SM CLR 22/19 A3006 RMK AO2 T02190185=
KVJI 160735Z AUTO 00000KT 10SM CLR 22/19 A3006 RMK AO2 T02200185=
KVJI 160755Z AUTO 00000KT 10SM CLR 22/19 A3006 RMK AO2 T02170185=
KVJI 160815Z AUTO 00000KT 10SM CLR 22/19 A3006 RMK AO2 T02150185=
KVJI 160835Z AUTO 00000KT 10SM CLR 22/19 A3005 RMK AO2 T02150186=
KVJI 160855Z AUTO 27003KT 10SM CLR 21/19 A3004 RMK AO2 T02100186=
KVJI 160915Z AUTO 35004KT 10SM CLR 21/19 A3006 RMK AO2 T02130186=
KVJI 160935Z AUTO 30003KT 10SM CLR 22/19 A3006 RMK AO2 T02160185=
KVJI 160955Z AUTO 00000KT 10SM CLR 21/18 A3006 RMK AO2 T02140184=
KVJI 161015Z AUTO 00000KT 10SM CLR 21/19 A3006 RMK AO2 T02100185=
KVJI 161035Z AUTO 00000KT 10SM CLR 22/19 A3006 RMK AO2 T02150185=
KVJI 161055Z AUTO 00000KT 10SM CLR 22/19 A3005 RMK AO2 T02160185=
KVJI 161115Z AUTO 00000KT 10SM CLR 22/19 A3005 RMK AO2 T02150187=
KVJI 161135Z AUTO 32005KT 10SM CLR 22/19 A3006 RMK AO2 T02170191=
KVJI 161155Z AUTO 00000KT 10SM CLR 22/19 A3007 RMK AO2 T02220192 10224 20205=
KVJI 161215Z AUTO 34005KT 10SM CLR 23/19 A3009 RMK AO2 T02260192=
KVJI 161235Z AUTO 00000KT 10SM SCT048 BKN055 23/20 A3010 RMK AO2 T02290195=
KVJI 161255Z AUTO 26005KT 10SM BKN048 OVC055 23/20 A3010 RMK AO2 T02320197=
KVJI 161315Z AUTO 27005KT 10SM SCT042 BKN048 OVC065 24/20 A3010 RMK AO2
 T02370198=
KVJI 161335Z AUTO 28007KT 10SM SCT044 SCT050 SCT075 24/20 A3011 RMK AO2
 T02430200=
KVJI 161355Z AUTO 25007KT 10SM SCT037 SCT075 SCT090 25/20 A3010 RMK AO2
 T02480201=
KVJI 161415Z AUTO 24009KT 10SM CLR 26/20 A3009 RMK AO2 T02590201=
KVJI 161435Z AUTO 26007KT 10SM CLR 26/20 A3009 RMK AO2 T02630201=
KVJI 161455Z AUTO 29006KT 10SM CLR 27/20 A3009 RMK AO2 T02670200=
KVJI 161515Z AUTO 28005KT 10SM SCT024 27/20 A3009 RMK AO2 T02700203=
KVJI 161535Z AUTO 28009KT 10SM SCT024 SCT036 SCT042 27/20 A3009 RMK AO2
 T02740202=
KVJI 161555Z AUTO 27004KT 10SM SCT026 SCT039 BKN049 28/20 A3009 RMK AO2
 T02760204=
KVJI 161615Z AUTO 28005KT 10SM SCT048 SCT060 28/20 A3008 RMK AO2 T02800203=
KVJI 161635Z AUTO 25007KT 10SM SCT030 29/20 A3007 RMK AO2 T02850203=
KVJI 161655Z AUTO 25005KT 10SM BKN028 28/20 A3006 RMK AO2 T02840200=
KVJI 161715Z AUTO 21004KT 10SM SCT030 BKN037 28/20 A3006 RMK AO2 T02820204=
KVJI 161735Z AUTO 28008KT 10SM SCT032 SCT038 SCT046 29/20 A3005 RMK AO2
 T02850200=
KVJI 161755Z AUTO 27005KT 10SM -RA SCT036 SCT060 BKN075 28/21 A3005 RMK AO2
 T02790205 10288 20222=
KVJI 161815Z AUTO 31003KT 10SM SCT036 SCT060 BKN090 28/21 A3004 RMK AO2
 T02790213=
KVJI 161835Z AUTO 27004KT 10SM SCT033 SCT043 29/20 A3003 RMK AO2 T02890201=
KVJI 161855Z AUTO 34005KT 10SM BKN040 BKN047 29/20 A3002 RMK AO2 T02900204=
KVJI 161915Z AUTO 00000KT 10SM BKN040 BKN045 BKN060 29/21 A3002 RMK AO2
 T02850208=
KVJI 161935Z AUTO 01003KT 10SM BKN045 BKN060 BKN075 29/20 A3002 RMK AO2
 T02900204=

Decoded Surface Observations


The weather observed at ABINGTON, VA (KVJI) at 02:55 PM EDT was:
  The skies were partly cloudy.
  Temperature: 90F ( 32C)  Dewpoint:  61F ( 16C)  Relative Humidity:  38%
  Winds from the W  (260 degs) at  7 mph.
  Altimeter:30.09 inches of mercury.
  The prevailing visibility was 10 miles.

The weather observed at ABINGTON, VA (KVJI) at 03:15 PM EDT was:
  The skies were clear.
  Temperature: 91F ( 33C)  Dewpoint:  61F ( 16C)  Relative Humidity:  36%
  Winds from the NW (310 degs) at  9 mph.
  Altimeter:30.07 inches of mercury.
  The prevailing visibility was 10 miles.

The weather observed at ABINGTON, VA (KVJI) at 03:35 PM EDT was:
  The skies were clear.
  Temperature: 91F ( 33C)  Dewpoint:  61F ( 16C)  Relative Humidity:  36%
  Winds from the WNW(290 degs) at 10 mph.
  Altimeter:30.07 inches of mercury.
  The prevailing visibility was 10 miles.

The weather observed at ABINGTON, VA (KVJI) at 03:55 PM EDT was:
  The skies were clear.
  Temperature: 91F ( 33C)  Dewpoint:  59F ( 15C)  Relative Humidity:  34%
  Winds from the W  (280 degs) at  8 mph.
  Altimeter:30.06 inches of mercury.
  The prevailing visibility was 10 miles.

The weather observed at ABINGTON, VA (KVJI) at 04:15 PM EDT was:
  The skies were clear.
  Temperature: 91F ( 33C)  Dewpoint:  61F ( 16C)  Relative Humidity:  36%
  Winds from the W  (270 degs) at  9 mph.
  Altimeter:30.05 inches of mercury.
  The prevailing visibility was 10 miles.

The weather observed at ABINGTON, VA (KVJI) at 04:35 PM EDT was:
  The skies were clear.
  Temperature: 91F ( 33C)  Dewpoint:  59F ( 15C)  Relative Humidity:  34%
  Winds from the WNW(290 degs) at  7 mph.
  Altimeter:30.05 inches of mercury.
  The prevailing visibility was 10 miles.

The weather observed at ABINGTON, VA (KVJI) at 04:55 PM EDT was:
  The skies were partly cloudy.
  Temperature: 91F ( 33C)  Dewpoint:  59F ( 15C)  Relative Humidity:  34%
  Winds from the WNW(290 degs) at  5 mph.
  Altimeter:30.04 inches of mercury.
  The prevailing visibility was 10 miles.

The weather observed at ABINGTON, VA (KVJI) at 05:15 PM EDT was:
  The skies were partly cloudy.
  Temperature: 91F ( 33C)  Dewpoint:  59F ( 15C)  Relative Humidity:  34%
  Winds from the WNW(290 degs) at  9 mph.
  Altimeter:30.03 inches of mercury.
  The prevailing visibility was 10 miles.

The weather observed at ABINGTON, VA (KVJI) at 05:35 PM EDT was:
  The skies were clear.
  Temperature: 91F ( 33C)  Dewpoint:  59F ( 15C)  Relative Humidity:  34%
  Winds from the WNW(290 degs) at 10 mph.
  Altimeter:30.02 inches of mercury.
  The prevailing visibility was 10 miles.

The weather observed at ABINGTON, VA (KVJI) at 05:55 PM EDT was:
  The skies were partly cloudy.
  Temperature: 91F ( 33C)  Dewpoint:  59F ( 15C)  Relative Humidity:  34%
  Winds from the W  (270 degs) at 10 mph.
  Altimeter:30.02 inches of mercury.
  The prevailing visibility was 10 miles.

The weather observed at ABINGTON, VA (KVJI) at 06:15 PM EDT was:
  The skies were partly cloudy.
  Temperature: 90F ( 32C)  Dewpoint:  59F ( 15C)  Relative Humidity:  36%
  Winds from the NW (300 degs) at  7 mph.
  Altimeter:30.01 inches of mercury.
  The prevailing visibility was 10 miles.

The weather observed at ABINGTON, VA (KVJI) at 06:35 PM EDT was:
  The skies were partly cloudy.
  Temperature: 90F ( 32C)  Dewpoint:  61F ( 16C)  Relative Humidity:  38%
  Winds from the NW (300 degs) at  8 mph.
  Altimeter:30.02 inches of mercury.
  The prevailing visibility was 10 miles.

The weather observed at ABINGTON, VA (KVJI) at 06:55 PM EDT was:
  The skies were partly cloudy.
  Temperature: 90F ( 32C)  Dewpoint:  61F ( 16C)  Relative Humidity:  38%
  Winds from the NW (320 degs) at  8 mph.
  Altimeter:30.02 inches of mercury.
  The prevailing visibility was 10 miles.

The weather observed at ABINGTON, VA (KVJI) at 07:15 PM EDT was:
  The skies were clear.
  Temperature: 88F ( 31C)  Dewpoint:  63F ( 17C)  Relative Humidity:  43%
  Winds from the NNW(340 degs) at  6 mph.
  Altimeter:30.02 inches of mercury.
  The prevailing visibility was 10 miles.

The weather observed at ABINGTON, VA (KVJI) at 07:35 PM EDT was:
  The skies were clear.
  Temperature: 88F ( 31C)  Dewpoint:  63F ( 17C)  Relative Humidity:  43%
  Winds from the NW (320 degs) at  5 mph.
  Altimeter:30.03 inches of mercury.
  The prevailing visibility was 10 miles.

The weather observed at ABINGTON, VA (KVJI) at 07:55 PM EDT was:
  The skies were clear.
  Temperature: 86F ( 30C)  Dewpoint:  63F ( 17C)  Relative Humidity:  46%
  Winds from the NW (320 degs) at  7 mph.
  Altimeter:30.03 inches of mercury.
  The prevailing visibility was 10 miles.
  The maximum temperature in the past 6 hours was  92F.

The weather observed at ABINGTON, VA (KVJI) at 08:15 PM EDT was:
  The skies were clear.
  Temperature: 86F ( 30C)  Dewpoint:  63F ( 17C)  Relative Humidity:  46%
  Winds from the NW (330 degs) at  5 mph.
  Altimeter:30.04 inches of mercury.
  The prevailing visibility was 10 miles.

The weather observed at ABINGTON, VA (KVJI) at 08:35 PM EDT was:
  The skies were clear.
  Temperature: 84F ( 29C)  Dewpoint:  64F ( 18C)  Relative Humidity:  51%
  Winds from the CLM(CLM degs) at  0 mph.
  Altimeter:30.04 inches of mercury.
  The prevailing visibility was 10 miles.

The weather observed at ABINGTON, VA (KVJI) at 08:55 PM EDT was:
  The skies were clear.
  Temperature: 82F ( 28C)  Dewpoint:  66F ( 19C)  Relative Humidity:  58%
  Winds from the CLM(CLM degs) at  0 mph.
  Altimeter:30.05 inches of mercury.
  The prevailing visibility was 10 miles.

The weather observed at ABINGTON, VA (KVJI) at 09:15 PM EDT was:
  The skies were clear.
  Temperature: 81F ( 27C)  Dewpoint:  66F ( 19C)  Relative Humidity:  62%
  Winds from the CLM(CLM degs) at  0 mph.
  Altimeter:30.05 inches of mercury.
  The prevailing visibility was 10 miles.

The weather observed at ABINGTON, VA (KVJI) at 09:35 PM EDT was:
  The skies were clear.
  Temperature: 79F ( 26C)  Dewpoint:  66F ( 19C)  Relative Humidity:  65%
  Winds from the CLM(CLM degs) at  0 mph.
  Altimeter:30.05 inches of mercury.
  The prevailing visibility was 10 miles.

The weather observed at ABINGTON, VA (KVJI) at 09:55 PM EDT was:
  The skies were clear.
  Temperature: 77F ( 25C)  Dewpoint:  66F ( 19C)  Relative Humidity:  69%
  Winds from the CLM(CLM degs) at  0 mph.
  Altimeter:30.05 inches of mercury.
  The prevailing visibility was 10 miles.

The weather observed at ABINGTON, VA (KVJI) at 10:15 PM EDT was:
  The skies were clear.
  Temperature: 77F ( 25C)  Dewpoint:  66F ( 19C)  Relative Humidity:  69%
  Winds from the CLM(CLM degs) at  0 mph.
  Altimeter:30.05 inches of mercury.
  The prevailing visibility was 10 miles.

The weather observed at ABINGTON, VA (KVJI) at 10:35 PM EDT was:
  The skies were clear.
  Temperature: 75F ( 24C)  Dewpoint:  66F ( 19C)  Relative Humidity:  74%
  Winds from the CLM(CLM degs) at  0 mph.
  Altimeter:30.04 inches of mercury.
  The prevailing visibility was 10 miles.

The weather observed at ABINGTON, VA (KVJI) at 10:55 PM EDT was:
  The skies were clear.
  Temperature: 75F ( 24C)  Dewpoint:  66F ( 19C)  Relative Humidity:  74%
  Winds from the CLM(CLM degs) at  0 mph.
  Altimeter:30.03 inches of mercury.
  The prevailing visibility was 10 miles.

The weather observed at ABINGTON, VA (KVJI) at 11:15 PM EDT was:
  The skies were clear.
  Temperature: 75F ( 24C)  Dewpoint:  66F ( 19C)  Relative Humidity:  74%
  Winds from the CLM(CLM degs) at  0 mph.
  Altimeter:30.03 inches of mercury.
  The prevailing visibility was 10 miles.

The weather observed at ABINGTON, VA (KVJI) at 11:35 PM EDT was:
  The skies were clear.
  Temperature: 75F ( 24C)  Dewpoint:  66F ( 19C)  Relative Humidity:  74%
  Winds from the CLM(CLM degs) at  0 mph.
  Altimeter:30.03 inches of mercury.
  The prevailing visibility was 10 miles.

The weather observed at ABINGTON, VA (KVJI) at 11:55 PM EDT was:
  The skies were clear.
  Temperature: 73F ( 23C)  Dewpoint:  66F ( 19C)  Relative Humidity:  78%
  Winds from the CLM(CLM degs) at  0 mph.
  Altimeter:30.02 inches of mercury.
  The prevailing visibility was 10 miles.

The weather observed at ABINGTON, VA (KVJI) at 12:15 AM EDT was:
  The skies were clear.
  Temperature: 73F ( 23C)  Dewpoint:  66F ( 19C)  Relative Humidity:  78%
  Winds from the CLM(CLM degs) at  0 mph.
  Altimeter:30.02 inches of mercury.
  The prevailing visibility was 10 miles.

The weather observed at ABINGTON, VA (KVJI) at 12:35 AM EDT was:
  The skies were clear.
  Temperature: 73F ( 23C)  Dewpoint:  66F ( 19C)  Relative Humidity:  78%
  Winds from the CLM(CLM degs) at  0 mph.
  Altimeter:30.02 inches of mercury.
  The prevailing visibility was 10 miles.

The weather observed at ABINGTON, VA (KVJI) at 12:55 AM EDT was:
  The skies were clear.
  Temperature: 73F ( 23C)  Dewpoint:  66F ( 19C)  Relative Humidity:  78%
  Winds from the CLM(CLM degs) at  0 mph.
  Altimeter:30.03 inches of mercury.
  The prevailing visibility was 10 miles.

The weather observed at ABINGTON, VA (KVJI) at 01:15 AM EDT was:
  The skies were clear.
  Temperature: 73F ( 23C)  Dewpoint:  66F ( 19C)  Relative Humidity:  78%
  Winds from the CLM(CLM degs) at  0 mph.
  Altimeter:30.03 inches of mercury.
  The prevailing visibility was 10 miles.

The weather observed at ABINGTON, VA (KVJI) at 01:35 AM EDT was:
  The skies were clear.
  Temperature: 72F ( 22C)  Dewpoint:  66F ( 19C)  Relative Humidity:  83%
  Winds from the CLM(CLM degs) at  0 mph.
  Altimeter:30.04 inches of mercury.
  The prevailing visibility was 10 miles.

The weather observed at ABINGTON, VA (KVJI) at 01:55 AM EDT was:
  The skies were clear.
  Temperature: 71F ( 22C)  Dewpoint:  66F ( 19C)  Relative Humidity:  83%
  Winds from the CLM(CLM degs) at  0 mph.
  Altimeter:30.04 inches of mercury.
  The prevailing visibility was 10 miles.
  The maximum temperature in the past 6 hours was  86F.
  The minimum temperature in the past 6 hours was  71F.

The weather observed at ABINGTON, VA (KVJI) at 02:15 AM EDT was:
  The skies were clear.
  Temperature: 72F ( 22C)  Dewpoint:  66F ( 19C)  Relative Humidity:  83%
  Winds from the CLM(CLM degs) at  0 mph.
  Altimeter:30.05 inches of mercury.
  The prevailing visibility was 10 miles.

The weather observed at ABINGTON, VA (KVJI) at 02:35 AM EDT was:
  The skies were clear.
  Temperature: 72F ( 22C)  Dewpoint:  66F ( 19C)  Relative Humidity:  83%
  Winds from the CLM(CLM degs) at  0 mph.
  Altimeter:30.06 inches of mercury.
  The prevailing visibility was 10 miles.

The weather observed at ABINGTON, VA (KVJI) at 02:55 AM EDT was:
  The skies were clear.
  Temperature: 72F ( 22C)  Dewpoint:  66F ( 19C)  Relative Humidity:  83%
  Winds from the CLM(CLM degs) at  0 mph.
  Altimeter:30.05 inches of mercury.
  The prevailing visibility was 10 miles.

The weather observed at ABINGTON, VA (KVJI) at 03:15 AM EDT was:
  The skies were clear.
  Temperature: 72F ( 22C)  Dewpoint:  66F ( 19C)  Relative Humidity:  83%
  Winds from the CLM(CLM degs) at  0 mph.
  Altimeter:30.06 inches of mercury.
  The prevailing visibility was 10 miles.

The weather observed at ABINGTON, VA (KVJI) at 03:35 AM EDT was:
  The skies were clear.
  Temperature: 72F ( 22C)  Dewpoint:  66F ( 19C)  Relative Humidity:  83%
  Winds from the CLM(CLM degs) at  0 mph.
  Altimeter:30.06 inches of mercury.
  The prevailing visibility was 10 miles.

The weather observed at ABINGTON, VA (KVJI) at 03:55 AM EDT was:
  The skies were clear.
  Temperature: 72F ( 22C)  Dewpoint:  66F ( 19C)  Relative Humidity:  83%
  Winds from the CLM(CLM degs) at  0 mph.
  Altimeter:30.06 inches of mercury.
  The prevailing visibility was 10 miles.

The weather observed at ABINGTON, VA (KVJI) at 04:15 AM EDT was:
  The skies were clear.
  Temperature: 72F ( 22C)  Dewpoint:  66F ( 19C)  Relative Humidity:  83%
  Winds from the CLM(CLM degs) at  0 mph.
  Altimeter:30.06 inches of mercury.
  The prevailing visibility was 10 miles.

The weather observed at ABINGTON, VA (KVJI) at 04:35 AM EDT was:
  The skies were clear.
  Temperature: 72F ( 22C)  Dewpoint:  66F ( 19C)  Relative Humidity:  83%
  Winds from the CLM(CLM degs) at  0 mph.
  Altimeter:30.05 inches of mercury.
  The prevailing visibility was 10 miles.

The weather observed at ABINGTON, VA (KVJI) at 04:55 AM EDT was:
  The skies were clear.
  Temperature: 70F ( 21C)  Dewpoint:  66F ( 19C)  Relative Humidity:  88%
  Winds from the W  (270 degs) at  3 mph.
  Altimeter:30.04 inches of mercury.
  The prevailing visibility was 10 miles.

The weather observed at ABINGTON, VA (KVJI) at 05:15 AM EDT was:
  The skies were clear.
  Temperature: 70F ( 21C)  Dewpoint:  66F ( 19C)  Relative Humidity:  88%
  Winds from the N  (350 degs) at  5 mph.
  Altimeter:30.06 inches of mercury.
  The prevailing visibility was 10 miles.

The weather observed at ABINGTON, VA (KVJI) at 05:35 AM EDT was:
  The skies were clear.
  Temperature: 72F ( 22C)  Dewpoint:  66F ( 19C)  Relative Humidity:  83%
  Winds from the NW (300 degs) at  3 mph.
  Altimeter:30.06 inches of mercury.
  The prevailing visibility was 10 miles.

The weather observed at ABINGTON, VA (KVJI) at 05:55 AM EDT was:
  The skies were clear.
  Temperature: 70F ( 21C)  Dewpoint:  64F ( 18C)  Relative Humidity:  83%
  Winds from the CLM(CLM degs) at  0 mph.
  Altimeter:30.06 inches of mercury.
  The prevailing visibility was 10 miles.

The weather observed at ABINGTON, VA (KVJI) at 06:15 AM EDT was:
  The skies were clear.
  Temperature: 70F ( 21C)  Dewpoint:  66F ( 19C)  Relative Humidity:  88%
  Winds from the CLM(CLM degs) at  0 mph.
  Altimeter:30.06 inches of mercury.
  The prevailing visibility was 10 miles.

The weather observed at ABINGTON, VA (KVJI) at 06:35 AM EDT was:
  The skies were clear.
  Temperature: 72F ( 22C)  Dewpoint:  66F ( 19C)  Relative Humidity:  83%
  Winds from the CLM(CLM degs) at  0 mph.
  Altimeter:30.06 inches of mercury.
  The prevailing visibility was 10 miles.

The weather observed at ABINGTON, VA (KVJI) at 06:55 AM EDT was:
  The skies were clear.
  Temperature: 72F ( 22C)  Dewpoint:  66F ( 19C)  Relative Humidity:  83%
  Winds from the CLM(CLM degs) at  0 mph.
  Altimeter:30.05 inches of mercury.
  The prevailing visibility was 10 miles.

The weather observed at ABINGTON, VA (KVJI) at 07:15 AM EDT was:
  The skies were clear.
  Temperature: 72F ( 22C)  Dewpoint:  66F ( 19C)  Relative Humidity:  83%
  Winds from the CLM(CLM degs) at  0 mph.
  Altimeter:30.05 inches of mercury.
  The prevailing visibility was 10 miles.

The weather observed at ABINGTON, VA (KVJI) at 07:35 AM EDT was:
  The skies were clear.
  Temperature: 72F ( 22C)  Dewpoint:  66F ( 19C)  Relative Humidity:  83%
  Winds from the NW (320 degs) at  6 mph.
  Altimeter:30.06 inches of mercury.
  The prevailing visibility was 10 miles.

The weather observed at ABINGTON, VA (KVJI) at 07:55 AM EDT was:
  The skies were clear.
  Temperature: 72F ( 22C)  Dewpoint:  67F ( 19C)  Relative Humidity:  83%
  Winds from the CLM(CLM degs) at  0 mph.
  Altimeter:30.07 inches of mercury.
  The prevailing visibility was 10 miles.
  The maximum temperature in the past 6 hours was  72F.

The weather observed at ABINGTON, VA (KVJI) at 08:15 AM EDT was:
  The skies were clear.
  Temperature: 73F ( 23C)  Dewpoint:  66F ( 19C)  Relative Humidity:  78%
  Winds from the NNW(340 degs) at  6 mph.
  Altimeter:30.09 inches of mercury.
  The prevailing visibility was 10 miles.

The weather observed at ABINGTON, VA (KVJI) at 08:35 AM EDT was:
  The skies were mostly cloudy.
  Temperature: 73F ( 23C)  Dewpoint:  68F ( 20C)  Relative Humidity:  83%
  Winds from the CLM(CLM degs) at  0 mph.
  Altimeter:30.10 inches of mercury.
  The prevailing visibility was 10 miles.

The weather observed at ABINGTON, VA (KVJI) at 08:55 AM EDT was:
  The skies were cloudy.
  Temperature: 73F ( 23C)  Dewpoint:  68F ( 20C)  Relative Humidity:  83%
  Winds from the W  (260 degs) at  6 mph.
  Altimeter:30.10 inches of mercury.
  The prevailing visibility was 10 miles.

The weather observed at ABINGTON, VA (KVJI) at 09:15 AM EDT was:
  The skies were cloudy.
  Temperature: 75F ( 24C)  Dewpoint:  68F ( 20C)  Relative Humidity:  78%
  Winds from the W  (270 degs) at  6 mph.
  Altimeter:30.10 inches of mercury.
  The prevailing visibility was 10 miles.

The weather observed at ABINGTON, VA (KVJI) at 09:35 AM EDT was:
  The skies were partly cloudy.
  Temperature: 75F ( 24C)  Dewpoint:  68F ( 20C)  Relative Humidity:  78%
  Winds from the W  (280 degs) at  8 mph.
  Altimeter:30.11 inches of mercury.
  The prevailing visibility was 10 miles.

The weather observed at ABINGTON, VA (KVJI) at 09:55 AM EDT was:
  The skies were partly cloudy.
  Temperature: 77F ( 25C)  Dewpoint:  68F ( 20C)  Relative Humidity:  74%
  Winds from the WSW(250 degs) at  8 mph.
  Altimeter:30.10 inches of mercury.
  The prevailing visibility was 10 miles.

The weather observed at ABINGTON, VA (KVJI) at 10:15 AM EDT was:
  The skies were clear.
  Temperature: 79F ( 26C)  Dewpoint:  68F ( 20C)  Relative Humidity:  70%
  Winds from the SW (240 degs) at 10 mph.
  Altimeter:30.09 inches of mercury.
  The prevailing visibility was 10 miles.

The weather observed at ABINGTON, VA (KVJI) at 10:35 AM EDT was:
  The skies were clear.
  Temperature: 79F ( 26C)  Dewpoint:  68F ( 20C)  Relative Humidity:  70%
  Winds from the W  (260 degs) at  8 mph.
  Altimeter:30.09 inches of mercury.
  The prevailing visibility was 10 miles.

The weather observed at ABINGTON, VA (KVJI) at 10:55 AM EDT was:
  The skies were clear.
  Temperature: 81F ( 27C)  Dewpoint:  68F ( 20C)  Relative Humidity:  66%
  Winds from the WNW(290 degs) at  7 mph.
  Altimeter:30.09 inches of mercury.
  The prevailing visibility was 10 miles.

The weather observed at ABINGTON, VA (KVJI) at 11:15 AM EDT was:
  The skies were partly cloudy.
  Temperature: 81F ( 27C)  Dewpoint:  68F ( 20C)  Relative Humidity:  66%
  Winds from the W  (280 degs) at  6 mph.
  Altimeter:30.09 inches of mercury.
  The prevailing visibility was 10 miles.

The weather observed at ABINGTON, VA (KVJI) at 11:35 AM EDT was:
  The skies were partly cloudy.
  Temperature: 81F ( 27C)  Dewpoint:  68F ( 20C)  Relative Humidity:  66%
  Winds from the W  (280 degs) at 10 mph.
  Altimeter:30.09 inches of mercury.
  The prevailing visibility was 10 miles.

The weather observed at ABINGTON, VA (KVJI) at 11:55 AM EDT was:
  The skies were mostly cloudy.
  Temperature: 82F ( 28C)  Dewpoint:  68F ( 20C)  Relative Humidity:  62%
  Winds from the W  (270 degs) at  5 mph.
  Altimeter:30.09 inches of mercury.
  The prevailing visibility was 10 miles.

The weather observed at ABINGTON, VA (KVJI) at 12:15 PM EDT was:
  The skies were partly cloudy.
  Temperature: 82F ( 28C)  Dewpoint:  68F ( 20C)  Relative Humidity:  62%
  Winds from the W  (280 degs) at  6 mph.
  Altimeter:30.08 inches of mercury.
  The prevailing visibility was 10 miles.

The weather observed at ABINGTON, VA (KVJI) at 12:35 PM EDT was:
  The skies were partly cloudy.
  Temperature: 84F ( 29C)  Dewpoint:  68F ( 20C)  Relative Humidity:  58%
  Winds from the WSW(250 degs) at  8 mph.
  Altimeter:30.07 inches of mercury.
  The prevailing visibility was 10 miles.

The weather observed at ABINGTON, VA (KVJI) at 12:55 PM EDT was:
  The skies were mostly cloudy.
  Temperature: 82F ( 28C)  Dewpoint:  68F ( 20C)  Relative Humidity:  62%
  Winds from the WSW(250 degs) at  6 mph.
  Altimeter:30.06 inches of mercury.
  The prevailing visibility was 10 miles.

The weather observed at ABINGTON, VA (KVJI) at 01:15 PM EDT was:
  The skies were mostly cloudy.
  Temperature: 82F ( 28C)  Dewpoint:  68F ( 20C)  Relative Humidity:  62%
  Winds from the SW (210 degs) at  5 mph.
  Altimeter:30.06 inches of mercury.
  The prevailing visibility was 10 miles.

The weather observed at ABINGTON, VA (KVJI) at 01:35 PM EDT was:
  The skies were partly cloudy.
  Temperature: 84F ( 29C)  Dewpoint:  68F ( 20C)  Relative Humidity:  58%
  Winds from the W  (280 degs) at  9 mph.
  Altimeter:30.05 inches of mercury.
  The prevailing visibility was 10 miles.

The weather observed at ABINGTON, VA (KVJI) at 01:55 PM EDT was:
  The skies were mostly cloudy.
  The weather reported was light rain.
  Temperature: 82F ( 28C)  Dewpoint:  69F ( 21C)  Relative Humidity:  64%
  Winds from the W  (270 degs) at  6 mph.
  Altimeter:30.05 inches of mercury.
  The prevailing visibility was 10 miles.
  The maximum temperature in the past 6 hours was  84F.

The weather observed at ABINGTON, VA (KVJI) at 02:15 PM EDT was:
  The skies were mostly cloudy.
  Temperature: 82F ( 28C)  Dewpoint:  70F ( 21C)  Relative Humidity:  66%
  Winds from the NW (310 degs) at  3 mph.
  Altimeter:30.04 inches of mercury.
  The prevailing visibility was 10 miles.

The weather observed at ABINGTON, VA (KVJI) at 02:35 PM EDT was:
  The skies were partly cloudy.
  Temperature: 84F ( 29C)  Dewpoint:  68F ( 20C)  Relative Humidity:  58%
  Winds from the W  (270 degs) at  5 mph.
  Altimeter:30.03 inches of mercury.
  The prevailing visibility was 10 miles.

The weather observed at ABINGTON, VA (KVJI) at 02:55 PM EDT was:
  The skies were mostly cloudy.
  Temperature: 84F ( 29C)  Dewpoint:  68F ( 20C)  Relative Humidity:  58%
  Winds from the NNW(340 degs) at  6 mph.
  Altimeter:30.02 inches of mercury.
  The prevailing visibility was 10 miles.

The weather observed at ABINGTON, VA (KVJI) at 03:15 PM EDT was:
  The skies were mostly cloudy.
  Temperature: 84F ( 29C)  Dewpoint:  70F ( 21C)  Relative Humidity:  62%
  Winds from the CLM(CLM degs) at  0 mph.
  Altimeter:30.02 inches of mercury.
  The prevailing visibility was 10 miles.

The weather observed at ABINGTON, VA (KVJI) at 03:35 PM EDT was:
  The skies were mostly cloudy.
  Temperature: 84F ( 29C)  Dewpoint:  68F ( 20C)  Relative Humidity:  58%
  Winds from the N  (010 degs) at  3 mph.
  Altimeter:30.02 inches of mercury.
  The prevailing visibility was 10 miles.

Short Range Forecast

Sorry no data found for vji
Make sure vji is a valid station
You might need to specify a nearby major city
Try Again

Zone Forecast

VAZ080-170200-
Dinwiddie-
Including the city of Reams
245 PM EDT Tue Jul 16 2024

...HEAT ADVISORY REMAINS IN EFFECT UNTIL 8 PM EDT THIS EVENING...
...HEAT ADVISORY IN EFFECT FROM 11 AM TO 8 PM EDT WEDNESDAY...

.THIS AFTERNOON...Mostly sunny with a slight chance of showers
and thunderstorms. Highs in the upper 90s. Southwest winds around
10 mph. Chance of rain 20 percent. Heat index values up to 108.
.TONIGHT...Partly cloudy. A slight chance of showers and
thunderstorms in the evening. Humid with lows in the mid 70s.
Southwest winds 5 to 10 mph. Chance of rain 20 percent. Heat
index values up to 105 early in the evening.
.WEDNESDAY...Partly sunny. A chance of showers and thunderstorms
in the afternoon. Hot with highs in the mid 90s. Southwest winds
5 to 10 mph. Gusts up to 20 mph in the afternoon. Chance of rain
50 percent. Heat index values up to 107.
.WEDNESDAY NIGHT...Mostly cloudy. Showers and thunderstorms
likely, mainly in the evening. Humid with lows in the lower 70s.
Southwest winds 5 to 10 mph. Chance of rain 60 percent. Heat
index values up to 100 early in the evening.
.THURSDAY...Mostly cloudy. A chance of showers and thunderstorms
in the morning, then showers and thunderstorms likely in the
afternoon. Humid with highs in the upper 80s. West winds around
5 mph, becoming north in the afternoon. Chance of rain
70 percent.
.THURSDAY NIGHT...Mostly cloudy. Showers and thunderstorms
likely, mainly in the evening. Lows in the upper 60s. Chance of
rain 70 percent.
.FRIDAY...Mostly cloudy in the morning, then partly sunny with a
chance of showers and thunderstorms in the afternoon. Highs in
the lower 80s. Chance of rain 30 percent.
.FRIDAY NIGHT...A chance of thunderstorms in the evening. Mostly
cloudy with a chance of showers. Lows in the upper 60s. Chance of
rain 40 percent.
.SATURDAY...Mostly cloudy with a chance of showers. A chance of
thunderstorms in the afternoon. Highs in the mid 80s. Chance of
rain 50 percent.
.SATURDAY NIGHT...Mostly cloudy with a chance of showers and
thunderstorms. Lows around 70. Chance of rain 50 percent.
.SUNDAY...Mostly cloudy. A chance of showers and thunderstorms in
the afternoon. Highs in the upper 80s. Chance of rain 40 percent.
.SUNDAY NIGHT...Mostly cloudy with a chance of showers and
thunderstorms. Lows around 70. Chance of rain 40 percent.
.MONDAY...Mostly cloudy with a chance of showers. A chance of
thunderstorms in the afternoon. Highs in the mid 80s. Chance of
rain 50 percent.


State Forecast

Sorry no data found for vji
Make sure vji is a valid station
You might need to specify a nearby major city
Try Again

State Forecast Discussion

Sorry no data found for vji
Make sure vji is a valid station
You might need to specify a nearby major city
Try Again

GFS Short-Range Model Output Statistics (MOS) Forecast

KVJI   GFS MOS GUIDANCE    7/16/2024  1200 UTC
DT /JULY 16/JULY 17                /JULY 18                /JULY 19
HR   18 21 00 03 06 09 12 15 18 21 00 03 06 09 12 15 18 21 00 06 12
N/X                    67          86          67          80    61
TMP  86 88 82 74 71 69 70 80 83 83 78 72 69 68 69 74 77 76 72 65 64
DPT  65 64 67 69 68 67 68 69 68 67 69 69 69 68 69 68 66 64 64 61 61
CLD  SC BK OV BK BK OV BK BK OV BK OV OV OV OV OV OV OV OV OV BK SC
WDR  27 28 28 12 26 29 28 27 28 30 31 30 31 32 34 35 32 33 02 06 08
WSP  08 08 04 02 02 02 02 09 13 09 04 01 01 01 01 05 04 04 03 01 05
P06        17    40    14    26    57    61    39    52    39  9  5
P12                    50          80          69          72    15
Q06         0     1     0     0     2     2     1     2     1  0  0
Q12                     1           3           2           2     0
T06     39/14 30/ 2  9/ 1 21/ 4 57/19 28/ 2 10/ 1 29/ 3 38/ 9  2/ 0
T12           63/14       26/ 5       72/20       37/ 4    38/ 9
CIG   8  8  8  8  8  8  8  8  7  8  7  6  2  2  2  4  6  7  7  7  8
VIS   7  7  7  7  7  7  7  7  7  7  7  5  1  1  3  7  7  7  7  7  7
OBV   N  N  N  N  N  N  N  N  N  N  N BR FG FG BR  N  N  N  N  N  N

GFS Long-Range Model Output Statistics (MOS) Forecast

KVJI   GFSX MOS GUIDANCE   7/16/2024  1200 UTC
FHR  24  36| 48  60| 72  84| 96 108|120 132|144 156|168 180|192
     WED 17| THU 18| FRI 19| SAT 20| SUN 21| MON 22| TUE 23|WED CLIMO
N/X  67  86| 67  80| 61  83| 65  83| 65  85| 66  82| 65  85| 64 60 85
TMP  70  78| 69  72| 64  76| 68  75| 67  77| 69  74| 68  78| 67
DPT  68  69| 69  64| 61  62| 66  66| 66  65| 65  64| 66  64| 65
CLD  OV  OV| OV  OV| PC  PC| OV  OV| OV  OV| OV  OV| OV  OV| OV
WND   4  13|  4   5|  5   6|  3   5|  2   6|  2   7|  3   8|  5
P12  50  80| 69  72| 15  20| 30  58| 41  41| 40  51| 40  46| 35999999
P24      80|     88|     26|     62|     59|     65|     68|      999
Q12   1   3|  2   2|  0   0|  0   2|  1   1|  1   2|       |
Q24       2|      3|      0|      1|      2|      3|       |
T12  30  60| 35  44|  7  31| 15  44| 24  46| 24  41| 20  42| 18
T24        | 65    | 44    | 34    | 48    | 52    | 44    | 42

NGM Model Output Statistics (MOS) Forecast

Climatological Summary

Sorry no data found for vji
Make sure vji is a valid station
You might need to specify a nearby major city
Try Again

Watch and Warning Statment

Sorry no data found for vji
Make sure vji is a valid station
You might need to specify a nearby major city
or it could be THERE ARE NO WATCHES OR WARNINGS for vji
Try Again

Park/Ski Recreation Report/Forecast

Sorry no data found for vji
Make sure vji is a valid station
You might need to specify a nearby major city
Try Again